sensor_id;sensor_type;location;lat;lon;timestamp;pressure;altitude;pressure_sealevel;temperature;humidity
56668;BME280;42542;48.360;10.958;2023-02-28T00:02:55;96624.03;;;-1.33;69.78
56668;BME280;42542;48.360;10.958;2023-02-28T00:05:56;96621.25;;;-1.30;69.47
56668;BME280;42542;48.360;10.958;2023-02-28T00:08:59;96627.50;;;-1.32;69.40
56668;BME280;42542;48.360;10.958;2023-02-28T00:12:01;96622.25;;;-1.32;69.46
56668;BME280;42542;48.360;10.958;2023-02-28T00:15:11;96624.88;;;-1.32;69.03
56668;BME280;42542;48.360;10.958;2023-02-28T00:18:13;96621.50;;;-1.34;69.51
56668;BME280;42542;48.360;10.958;2023-02-28T00:21:15;96620.63;;;-1.35;69.44
56668;BME280;42542;48.360;10.958;2023-02-28T00:24:17;96618.94;;;-1.36;69.20
56668;BME280;42542;48.360;10.958;2023-02-28T00:27:19;96617.25;;;-1.37;69.35
56668;BME280;42542;48.360;10.958;2023-02-28T00:30:22;96619.13;;;-1.39;69.48
56668;BME280;42542;48.360;10.958;2023-02-28T00:33:24;96616.63;;;-1.42;68.97
56668;BME280;42542;48.360;10.958;2023-02-28T00:36:29;96620.09;;;-1.41;69.67
56668;BME280;42542;48.360;10.958;2023-02-28T00:39:34;96622.91;;;-1.44;69.64
56668;BME280;42542;48.360;10.958;2023-02-28T00:42:36;96620.19;;;-1.43;69.81
56668;BME280;42542;48.360;10.958;2023-02-28T00:45:38;96612.44;;;-1.44;69.87
56668;BME280;42542;48.360;10.958;2023-02-28T00:48:40;96611.72;;;-1.48;69.61
56668;BME280;42542;48.360;10.958;2023-02-28T00:51:42;96614.41;;;-1.49;69.58
56668;BME280;42542;48.360;10.958;2023-02-28T00:54:44;96605.94;;;-1.54;69.45
56668;BME280;42542;48.360;10.958;2023-02-28T00:57:45;96613.81;;;-1.54;70.10
56668;BME280;42542;48.360;10.958;2023-02-28T01:00:47;96616.50;;;-1.56;69.73
56668;BME280;42542;48.360;10.958;2023-02-28T01:03:50;96618.34;;;-1.58;69.62
56668;BME280;42542;48.360;10.958;2023-02-28T01:06:52;96606.19;;;-1.59;70.17
56668;BME280;42542;48.360;10.958;2023-02-28T01:09:55;96600.31;;;-1.64;70.25
56668;BME280;42542;48.360;10.958;2023-02-28T01:12:59;96605.56;;;-1.64;69.90
56668;BME280;42542;48.360;10.958;2023-02-28T01:16:00;96613.59;;;-1.67;69.99
56668;BME280;42542;48.360;10.958;2023-02-28T01:19:02;96613.59;;;-1.67;70.31
56668;BME280;42542;48.360;10.958;2023-02-28T01:22:04;96610.88;;;-1.66;70.14
56668;BME280;42542;48.360;10.958;2023-02-28T01:25:07;96604.19;;;-1.71;70.16
56668;BME280;42542;48.360;10.958;2023-02-28T01:28:08;96605.94;;;-1.72;70.48
56668;BME280;42542;48.360;10.958;2023-02-28T01:31:10;96613.91;;;-1.73;70.61
56668;BME280;42542;48.360;10.958;2023-02-28T01:34:12;96605.22;;;-1.74;70.35
56668;BME280;42542;48.360;10.958;2023-02-28T01:37:14;96596.63;;;-1.77;70.74
56668;BME280;42542;48.360;10.958;2023-02-28T01:40:17;96600.88;;;-1.75;70.44
56668;BME280;42542;48.360;10.958;2023-02-28T01:46:25;96598.47;;;-1.79;70.73
56668;BME280;42542;48.360;10.958;2023-02-28T01:49:27;96589.88;;;-1.81;70.33
56668;BME280;42542;48.360;10.958;2023-02-28T01:52:31;96581.47;;;-1.88;70.74
56668;BME280;42542;48.360;10.958;2023-02-28T01:55:34;96582.16;;;-1.84;70.47
56668;BME280;42542;48.360;10.958;2023-02-28T01:58:36;96578.16;;;-1.91;70.93
56668;BME280;42542;48.360;10.958;2023-02-28T02:01:38;96580.69;;;-1.90;70.99
56668;BME280;42542;48.360;10.958;2023-02-28T02:04:48;96577.31;;;-1.92;70.77
56668;BME280;42542;48.360;10.958;2023-02-28T02:07:56;96568.84;;;-1.97;71.01
56668;BME280;42542;48.360;10.958;2023-02-28T02:11:00;96562.75;;;-1.98;70.98
56668;BME280;42542;48.360;10.958;2023-02-28T02:14:24;96567.06;;;-1.97;71.67
56668;BME280;42542;48.360;10.958;2023-02-28T02:17:46;96575.78;;;-1.96;71.32
56668;BME280;42542;48.360;10.958;2023-02-28T02:21:07;96569.69;;;-1.97;71.50
56668;BME280;42542;48.360;10.958;2023-02-28T02:28:04;96555.03;;;-2.01;71.89
56668;BME280;42542;48.360;10.958;2023-02-28T02:34:55;96555.94;;;-2.02;71.92
56668;BME280;42542;48.360;10.958;2023-02-28T02:41:28;96557.81;;;-2.04;72.29
56668;BME280;42542;48.360;10.958;2023-02-28T02:44:43;96554.28;;;-2.03;71.93
56668;BME280;42542;48.360;10.958;2023-02-28T02:47:48;96551.81;;;-2.06;72.24
56668;BME280;42542;48.360;10.958;2023-02-28T02:50:55;96554.50;;;-2.07;72.86
56668;BME280;42542;48.360;10.958;2023-02-28T02:54:04;96551.94;;;-2.09;72.76
56668;BME280;42542;48.360;10.958;2023-02-28T02:58:13;96554.56;;;-2.09;72.75
56668;BME280;42542;48.360;10.958;2023-02-28T03:00:47;96557.28;;;-2.10;72.88
56668;BME280;42542;48.360;10.958;2023-02-28T03:03:51;96563.13;;;-2.05;73.53
56668;BME280;42542;48.360;10.958;2023-02-28T03:06:54;96555.34;;;-2.07;73.43
56668;BME280;42542;48.360;10.958;2023-02-28T03:09:57;96570.06;;;-2.04;73.29
56668;BME280;42542;48.360;10.958;2023-02-28T03:19:55;96571.53;;;-1.99;73.86
56668;BME280;42542;48.360;10.958;2023-02-28T03:23:14;96575.00;;;-1.98;73.78
56668;BME280;42542;48.360;10.958;2023-02-28T03:26:21;96565.38;;;-1.98;73.72
56668;BME280;42542;48.360;10.958;2023-02-28T03:29:33;96571.47;;;-1.97;74.01
56668;BME280;42542;48.360;10.958;2023-02-28T03:32:42;96574.84;;;-1.95;74.12
56668;BME280;42542;48.360;10.958;2023-02-28T03:35:52;96574.75;;;-1.93;74.08
56668;BME280;42542;48.360;10.958;2023-02-28T03:39:01;96569.44;;;-1.92;74.07
56668;BME280;42542;48.360;10.958;2023-02-28T03:42:22;96568.53;;;-1.91;74.37
56668;BME280;42542;48.360;10.958;2023-02-28T03:45:33;96580.63;;;-1.88;74.48
56668;BME280;42542;48.360;10.958;2023-02-28T03:48:44;96579.78;;;-1.89;74.39
56668;BME280;42542;48.360;10.958;2023-02-28T03:51:49;96590.25;;;-1.89;74.61
56668;BME280;42542;48.360;10.958;2023-02-28T03:54:55;96590.19;;;-1.87;74.57
56668;BME280;42542;48.360;10.958;2023-02-28T03:58:15;96588.50;;;-1.88;74.65
56668;BME280;42542;48.360;10.958;2023-02-28T04:01:39;96591.84;;;-1.86;74.97
56668;BME280;42542;48.360;10.958;2023-02-28T04:04:42;96592.81;;;-1.87;74.48
56668;BME280;42542;48.360;10.958;2023-02-28T04:07:46;96600.50;;;-1.84;74.33
56668;BME280;42542;48.360;10.958;2023-02-28T04:10:56;96602.97;;;-1.81;74.47
56668;BME280;42542;48.360;10.958;2023-02-28T04:13:59;96601.19;;;-1.81;74.11
56668;BME280;42542;48.360;10.958;2023-02-28T04:17:00;96614.19;;;-1.79;74.08
56668;BME280;42542;48.360;10.958;2023-02-28T04:20:03;96611.56;;;-1.79;74.54
56668;BME280;42542;48.360;10.958;2023-02-28T04:23:10;96606.34;;;-1.79;74.69
56668;BME280;42542;48.360;10.958;2023-02-28T04:26:12;96613.28;;;-1.78;74.78
56668;BME280;42542;48.360;10.958;2023-02-28T04:29:22;96608.97;;;-1.79;74.34
56668;BME280;42542;48.360;10.958;2023-02-28T04:32:25;96607.28;;;-1.80;74.56
56668;BME280;42542;48.360;10.958;2023-02-28T04:35:28;96610.66;;;-1.78;74.89
56668;BME280;42542;48.360;10.958;2023-02-28T04:38:33;96613.22;;;-1.77;74.89
56668;BME280;42542;48.360;10.958;2023-02-28T04:41:37;96612.34;;;-1.77;74.67
56668;BME280;42542;48.360;10.958;2023-02-28T04:44:39;96607.91;;;-1.75;74.78
56668;BME280;42542;48.360;10.958;2023-02-28T04:47:40;96604.66;;;-1.80;74.61
56668;BME280;42542;48.360;10.958;2023-02-28T04:50:43;96608.97;;;-1.79;74.68
56668;BME280;42542;48.360;10.958;2023-02-28T04:53:45;96607.13;;;-1.77;75.34
56668;BME280;42542;48.360;10.958;2023-02-28T04:56:47;96605.41;;;-1.78;74.75
56668;BME280;42542;48.360;10.958;2023-02-28T04:59:54;96609.06;;;-1.81;74.77
56668;BME280;42542;48.360;10.958;2023-02-28T05:02:55;96604.75;;;-1.82;74.89
56668;BME280;42542;48.360;10.958;2023-02-28T05:05:57;96618.53;;;-1.78;74.80
56668;BME280;42542;48.360;10.958;2023-02-28T05:08:59;96615.91;;;-1.78;74.84
56668;BME280;42542;48.360;10.958;2023-02-28T05:12:05;96616.81;;;-1.79;74.77
56668;BME280;42542;48.360;10.958;2023-02-28T05:15:12;96620.22;;;-1.77;74.86
56668;BME280;42542;48.360;10.958;2023-02-28T05:18:14;96617.66;;;-1.79;75.01
56668;BME280;42542;48.360;10.958;2023-02-28T05:24:28;96620.47;;;-1.82;75.30
56668;BME280;42542;48.360;10.958;2023-02-28T05:27:30;96623.75;;;-1.78;74.97
56668;BME280;42542;48.360;10.958;2023-02-28T05:30:33;96629.78;;;-1.76;74.81
56668;BME280;42542;48.360;10.958;2023-02-28T05:33:35;96617.66;;;-1.79;75.18
56668;BME280;42542;48.360;10.958;2023-02-28T05:36:38;96615.81;;;-1.77;75.13
56668;BME280;42542;48.360;10.958;2023-02-28T05:39:41;96615.91;;;-1.78;75.39
56668;BME280;42542;48.360;10.958;2023-02-28T05:42:42;96607.19;;;-1.79;75.17
56668;BME280;42542;48.360;10.958;2023-02-28T05:45:44;96608.88;;;-1.78;74.74
56668;BME280;42542;48.360;10.958;2023-02-28T05:48:47;96616.59;;;-1.75;75.25
56668;BME280;42542;48.360;10.958;2023-02-28T05:51:49;96618.38;;;-1.75;75.10
56668;BME280;42542;48.360;10.958;2023-02-28T05:54:51;96621.22;;;-1.80;74.96
56668;BME280;42542;48.360;10.958;2023-02-28T05:57:53;96625.53;;;-1.79;74.74
56668;BME280;42542;48.360;10.958;2023-02-28T06:00:55;96627.94;;;-1.74;74.69
56668;BME280;42542;48.360;10.958;2023-02-28T06:03:58;96623.63;;;-1.75;74.89
56668;BME280;42542;48.360;10.958;2023-02-28T06:07:03;96626.16;;;-1.74;74.81
56668;BME280;42542;48.360;10.958;2023-02-28T06:10:05;96628.88;;;-1.75;74.70
56668;BME280;42542;48.360;10.958;2023-02-28T06:13:07;96635.94;;;-1.77;74.76
56668;BME280;42542;48.360;10.958;2023-02-28T06:16:11;96630.78;;;-1.79;74.69
56668;BME280;42542;48.360;10.958;2023-02-28T06:19:12;96640.25;;;-1.76;75.02
56668;BME280;42542;48.360;10.958;2023-02-28T06:22:15;96650.50;;;-1.72;75.28
56668;BME280;42542;48.360;10.958;2023-02-28T06:25:17;96653.97;;;-1.71;75.00
56668;BME280;42542;48.360;10.958;2023-02-28T06:28:19;96664.38;;;-1.70;74.44
56668;BME280;42542;48.360;10.958;2023-02-28T06:31:21;96660.00;;;-1.69;74.36
56668;BME280;42542;48.360;10.958;2023-02-28T06:34:23;96654.81;;;-1.71;74.83
56668;BME280;42542;48.360;10.958;2023-02-28T06:37:25;96667.00;;;-1.70;74.81
56668;BME280;42542;48.360;10.958;2023-02-28T06:40:28;96678.47;;;-1.72;74.69
56668;BME280;42542;48.360;10.958;2023-02-28T06:43:37;96687.97;;;-1.70;74.88
56668;BME280;42542;48.360;10.958;2023-02-28T06:46:41;96687.91;;;-1.68;74.49
56668;BME280;42542;48.360;10.958;2023-02-28T06:49:43;96696.63;;;-1.68;74.35
56668;BME280;42542;48.360;10.958;2023-02-28T06:52:46;96689.66;;;-1.69;74.83
56668;BME280;42542;48.360;10.958;2023-02-28T06:55:48;96704.31;;;-1.65;74.45
56668;BME280;42542;48.360;10.958;2023-02-28T06:58:51;96695.75;;;-1.68;74.25
56668;BME280;42542;48.360;10.958;2023-02-28T07:01:54;96709.47;;;-1.63;74.62
56668;BME280;42542;48.360;10.958;2023-02-28T07:04:58;96706.78;;;-1.62;74.04
56668;BME280;42542;48.360;10.958;2023-02-28T07:08:01;96701.53;;;-1.62;74.17
56668;BME280;42542;48.360;10.958;2023-02-28T07:11:04;96705.00;;;-1.61;74.36
56668;BME280;42542;48.360;10.958;2023-02-28T07:14:06;96712.03;;;-1.62;74.37
56668;BME280;42542;48.360;10.958;2023-02-28T07:17:10;96703.31;;;-1.62;74.36
56668;BME280;42542;48.360;10.958;2023-02-28T07:20:13;96694.59;;;-1.63;73.99
56668;BME280;42542;48.360;10.958;2023-02-28T07:23:15;96694.59;;;-1.63;74.02
56668;BME280;42542;48.360;10.958;2023-02-28T07:26:18;96691.38;;;-1.68;73.95
56668;BME280;42542;48.360;10.958;2023-02-28T07:29:21;96689.59;;;-1.67;73.83
56668;BME280;42542;48.360;10.958;2023-02-28T07:32:23;96699.91;;;-1.64;74.15
56668;BME280;42542;48.360;10.958;2023-02-28T07:35:24;96694.59;;;-1.63;74.20
56668;BME280;42542;48.360;10.958;2023-02-28T07:38:26;96696.16;;;-1.59;73.77
56668;BME280;42542;48.360;10.958;2023-02-28T07:41:30;96701.41;;;-1.59;73.93
56668;BME280;42542;48.360;10.958;2023-02-28T07:44:38;96701.53;;;-1.62;73.82
56668;BME280;42542;48.360;10.958;2023-02-28T07:47:42;96706.66;;;-1.59;73.95
56668;BME280;42542;48.360;10.958;2023-02-28T07:50:44;96717.75;;;-1.53;73.62
56668;BME280;42542;48.360;10.958;2023-02-28T07:53:45;96709.03;;;-1.54;73.70
56668;BME280;42542;48.360;10.958;2023-02-28T07:56:47;96710.78;;;-1.54;73.29
56668;BME280;42542;48.360;10.958;2023-02-28T07:59:49;96715.06;;;-1.52;73.43
56668;BME280;42542;48.360;10.958;2023-02-28T08:02:50;96713.97;;;-1.48;73.87
56668;BME280;42542;48.360;10.958;2023-02-28T08:05:52;96717.19;;;-1.43;73.50
56668;BME280;42542;48.360;10.958;2023-02-28T08:08:54;96720.84;;;-1.45;73.22
56668;BME280;42542;48.360;10.958;2023-02-28T08:11:58;96720.72;;;-1.44;73.40
56668;BME280;42542;48.360;10.958;2023-02-28T08:15:01;96719.66;;;-1.40;73.42
56668;BME280;42542;48.360;10.958;2023-02-28T08:18:03;96724.00;;;-1.39;73.30
56668;BME280;42542;48.360;10.958;2023-02-28T08:21:09;96711.56;;;-1.35;73.03
56668;BME280;42542;48.360;10.958;2023-02-28T08:24:11;96716.13;;;-1.39;72.97
56668;BME280;42542;48.360;10.958;2023-02-28T08:27:13;96716.88;;;-1.37;72.14
56668;BME280;42542;48.360;10.958;2023-02-28T08:30:15;96724.59;;;-1.34;72.09
56668;BME280;42542;48.360;10.958;2023-02-28T08:33:17;96715.94;;;-1.36;72.05
56668;BME280;42542;48.360;10.958;2023-02-28T08:36:19;96725.97;;;-1.27;72.43
56668;BME280;42542;48.360;10.958;2023-02-28T08:39:21;96726.53;;;-1.20;72.34
56668;BME280;42542;48.360;10.958;2023-02-28T08:42:23;96727.13;;;-1.15;72.01
56668;BME280;42542;48.360;10.958;2023-02-28T08:45:25;96726.13;;;-1.12;71.94
56668;BME280;42542;48.360;10.958;2023-02-28T08:48:29;96730.31;;;-1.08;71.74
56668;BME280;42542;48.360;10.958;2023-02-28T08:51:31;96735.56;;;-1.08;71.09
56668;BME280;42542;48.360;10.958;2023-02-28T08:54:33;96728.34;;;-1.05;71.50
56668;BME280;42542;48.360;10.958;2023-02-28T08:57:37;96731.75;;;-1.03;71.73
56668;BME280;42542;48.360;10.958;2023-02-28T09:00:39;96733.34;;;-1.00;71.84
56668;BME280;42542;48.360;10.958;2023-02-28T09:03:42;96727.88;;;-0.96;71.13
56668;BME280;42542;48.360;10.958;2023-02-28T09:06:44;96738.31;;;-0.94;71.34
56668;BME280;42542;48.360;10.958;2023-02-28T09:09:46;96735.75;;;-0.96;70.94
56668;BME280;42542;48.360;10.958;2023-02-28T09:12:57;96729.81;;;-0.99;70.95
56668;BME280;42542;48.360;10.958;2023-02-28T09:16:00;96729.59;;;-0.95;71.33
56668;BME280;42542;48.360;10.958;2023-02-28T09:19:02;96736.94;;;-1.01;71.28
56668;BME280;42542;48.360;10.958;2023-02-28T09:22:07;96727.13;;;-0.98;71.34
56668;BME280;42542;48.360;10.958;2023-02-28T09:25:10;96744.84;;;-0.86;71.71
56668;BME280;42542;48.360;10.958;2023-02-28T09:28:12;96737.91;;;-0.87;70.93
56668;BME280;42542;48.360;10.958;2023-02-28T09:31:18;96745.38;;;-0.79;71.59
56668;BME280;42542;48.360;10.958;2023-02-28T09:34:22;96751.84;;;-0.69;71.93
56668;BME280;42542;48.360;10.958;2023-02-28T09:37:24;96756.44;;;-0.57;71.85
56668;BME280;42542;48.360;10.958;2023-02-28T09:40:28;96757.06;;;-0.52;70.94
56668;BME280;42542;48.360;10.958;2023-02-28T09:43:38;96764.75;;;-0.49;69.44
56668;BME280;42542;48.360;10.958;2023-02-28T09:46:48;96767.56;;;-0.52;69.72
56668;BME280;42542;48.360;10.958;2023-02-28T09:49:54;96766.53;;;-0.49;70.76
56668;BME280;42542;48.360;10.958;2023-02-28T09:52:58;96773.25;;;-0.44;70.31
56668;BME280;42542;48.360;10.958;2023-02-28T09:56:17;96775.69;;;-0.41;69.53
56668;BME280;42542;48.360;10.958;2023-02-28T09:59:49;96767.06;;;-0.43;69.22
56668;BME280;42542;48.360;10.958;2023-02-28T10:03:04;96778.25;;;-0.39;69.51
56668;BME280;42542;48.360;10.958;2023-02-28T10:06:20;96776.16;;;-0.32;70.09
56668;BME280;42542;48.360;10.958;2023-02-28T10:09:32;96786.25;;;-0.25;69.59
56668;BME280;42542;48.360;10.958;2023-02-28T10:12:41;96777.94;;;-0.17;70.05
56668;BME280;42542;48.360;10.958;2023-02-28T10:15:52;96782.09;;;-0.13;69.69
56668;BME280;42542;48.360;10.958;2023-02-28T10:19:16;96785.34;;;-0.08;69.45
56668;BME280;42542;48.360;10.958;2023-02-28T10:22:52;96782.94;;;-0.13;68.38
56668;BME280;42542;48.360;10.958;2023-02-28T10:26:07;96777.53;;;-0.10;68.99
56668;BME280;42542;48.360;10.958;2023-02-28T10:29:12;96769.66;;;-0.10;69.23
56668;BME280;42542;48.360;10.958;2023-02-28T10:32:17;96783.16;;;0.00;69.04
56668;BME280;42542;48.360;10.958;2023-02-28T10:35:24;96788.81;;;0.08;68.79
56668;BME280;42542;48.360;10.958;2023-02-28T10:41:32;96787.03;;;0.24;69.21
56668;BME280;42542;48.360;10.958;2023-02-28T10:44:40;96788.56;;;0.28;68.16
56668;BME280;42542;48.360;10.958;2023-02-28T10:47:49;96791.00;;;0.31;67.68
56668;BME280;42542;48.360;10.958;2023-02-28T10:50:55;96787.47;;;0.32;67.99
56668;BME280;42542;48.360;10.958;2023-02-28T10:53:59;96785.94;;;0.28;67.73
56668;BME280;42542;48.360;10.958;2023-02-28T10:57:23;96785.59;;;0.34;67.85
56668;BME280;42542;48.360;10.958;2023-02-28T11:00:35;96780.91;;;0.39;67.93
56668;BME280;42542;48.360;10.958;2023-02-28T11:03:39;96787.59;;;0.45;68.48
56668;BME280;42542;48.360;10.958;2023-02-28T11:06:41;96782.84;;;0.52;68.01
56668;BME280;42542;48.360;10.958;2023-02-28T11:09:46;96782.50;;;0.58;67.51
56668;BME280;42542;48.360;10.958;2023-02-28T11:12:55;96786.38;;;0.66;68.16
56668;BME280;42542;48.360;10.958;2023-02-28T11:16:03;96779.19;;;0.70;67.37
56668;BME280;42542;48.360;10.958;2023-02-28T11:19:17;96770.16;;;0.74;67.52
56668;BME280;42542;48.360;10.958;2023-02-28T11:22:24;96781.38;;;0.77;67.02
56668;BME280;42542;48.360;10.958;2023-02-28T11:25:37;96779.41;;;0.81;67.29
56668;BME280;42542;48.360;10.958;2023-02-28T11:28:42;96779.03;;;0.87;66.89
56668;BME280;42542;48.360;10.958;2023-02-28T11:32:17;96778.59;;;0.95;66.81
56668;BME280;42542;48.360;10.958;2023-02-28T11:35:24;96781.13;;;0.96;66.27
56668;BME280;42542;48.360;10.958;2023-02-28T11:38:28;96769.59;;;0.99;67.07
56668;BME280;42542;48.360;10.958;2023-02-28T11:45:12;96760.50;;;1.18;67.05
56668;BME280;42542;48.360;10.958;2023-02-28T11:48:22;96754.97;;;1.23;66.40
56668;BME280;42542;48.360;10.958;2023-02-28T11:55:36;96757.03;;;1.32;65.76
56668;BME280;42542;48.360;10.958;2023-02-28T12:02:24;96740.97;;;1.37;65.64
56668;BME280;42542;48.360;10.958;2023-02-28T12:05:34;96748.59;;;1.41;65.79
56668;BME280;42542;48.360;10.958;2023-02-28T12:08:49;96749.06;;;1.48;65.83
56668;BME280;42542;48.360;10.958;2023-02-28T12:15:27;96751.16;;;1.57;65.63
56668;BME280;42542;48.360;10.958;2023-02-28T12:25:31;96732.03;;;1.68;64.40
56668;BME280;42542;48.360;10.958;2023-02-28T12:28:47;96735.34;;;1.71;65.87
56668;BME280;42542;48.360;10.958;2023-02-28T12:32:16;96727.69;;;1.81;65.92
56668;BME280;42542;48.360;10.958;2023-02-28T12:35:28;96724.78;;;1.85;64.78
56668;BME280;42542;48.360;10.958;2023-02-28T12:38:41;96727.00;;;1.91;65.18
56668;BME280;42542;48.360;10.958;2023-02-28T12:42:09;96722.50;;;1.93;63.51
56668;BME280;42542;48.360;10.958;2023-02-28T12:51:36;96712.41;;;2.00;64.13
56668;BME280;42542;48.360;10.958;2023-02-28T12:54:50;96718.22;;;2.05;63.88
56668;BME280;42542;48.360;10.958;2023-02-28T12:58:07;96713.31;;;2.13;64.68
56668;BME280;42542;48.360;10.958;2023-02-28T13:04:56;96701.34;;;2.22;63.16
56668;BME280;42542;48.360;10.958;2023-02-28T13:11:45;96702.53;;;2.30;63.23
56668;BME280;42542;48.360;10.958;2023-02-28T13:14:47;96693.66;;;2.31;62.24
56668;BME280;42542;48.360;10.958;2023-02-28T13:17:54;96698.56;;;2.38;62.17
56668;BME280;42542;48.360;10.958;2023-02-28T13:20:57;96700.78;;;2.44;62.53
56668;BME280;42542;48.360;10.958;2023-02-28T13:24:04;96697.72;;;2.50;62.85
56668;BME280;42542;48.360;10.958;2023-02-28T13:27:31;96703.63;;;2.53;62.85
56668;BME280;42542;48.360;10.958;2023-02-28T13:40:31;96703.28;;;2.72;61.89
56668;BME280;42542;48.360;10.958;2023-02-28T13:50:19;96708.50;;;2.86;61.75
56668;BME280;42542;48.360;10.958;2023-02-28T13:53:40;96695.63;;;2.94;62.10
56668;BME280;42542;48.360;10.958;2023-02-28T14:07:19;96696.59;;;3.31;60.78
56668;BME280;42542;48.360;10.958;2023-02-28T14:10:27;96697.31;;;3.33;60.46
56668;BME280;42542;48.360;10.958;2023-02-28T14:13:43;96694.91;;;3.30;60.86
56668;BME280;42542;48.360;10.958;2023-02-28T14:16:48;96698.59;;;3.28;60.57
56668;BME280;42542;48.360;10.958;2023-02-28T14:19:51;96704.28;;;3.34;60.83
56668;BME280;42542;48.360;10.958;2023-02-28T14:23:06;96701.44;;;3.37;61.08
56668;BME280;42542;48.360;10.958;2023-02-28T14:36:36;96701.88;;;3.44;59.80
56668;BME280;42542;48.360;10.958;2023-02-28T14:39:41;96709.16;;;3.40;58.99
56668;BME280;42542;48.360;10.958;2023-02-28T14:42:55;96701.44;;;3.37;59.39
56668;BME280;42542;48.360;10.958;2023-02-28T14:46:00;96701.56;;;3.36;58.81
56668;BME280;42542;48.360;10.958;2023-02-28T14:49:06;96703.69;;;3.31;59.56
56668;BME280;42542;48.360;10.958;2023-02-28T14:55:15;96705.66;;;3.27;58.87
56668;BME280;42542;48.360;10.958;2023-02-28T14:58:28;96700.72;;;3.23;58.90
56668;BME280;42542;48.360;10.958;2023-02-28T15:01:31;96697.66;;;3.16;58.72
56668;BME280;42542;48.360;10.958;2023-02-28T15:04:38;96700.38;;;3.14;58.78
56668;BME280;42542;48.360;10.958;2023-02-28T15:07:43;96698.50;;;3.17;59.56
56668;BME280;42542;48.360;10.958;2023-02-28T15:10:54;96702.69;;;3.19;59.82
56668;BME280;42542;48.360;10.958;2023-02-28T15:13:57;96715.09;;;3.31;59.46
56668;BME280;42542;48.360;10.958;2023-02-28T15:17:02;96698.81;;;3.37;59.17
56668;BME280;42542;48.360;10.958;2023-02-28T15:20:12;96706.91;;;3.47;59.17
56668;BME280;42542;48.360;10.958;2023-02-28T15:23:15;96713.06;;;3.47;59.38
56668;BME280;42542;48.360;10.958;2023-02-28T15:26:22;96718.44;;;3.46;58.92
56668;BME280;42542;48.360;10.958;2023-02-28T15:29:28;96714.97;;;3.45;59.66
56668;BME280;42542;48.360;10.958;2023-02-28T15:32:34;96719.53;;;3.43;59.81
56668;BME280;42542;48.360;10.958;2023-02-28T15:35:38;96715.19;;;3.42;59.70
56668;BME280;42542;48.360;10.958;2023-02-28T15:38:50;96722.91;;;3.45;58.53
56668;BME280;42542;48.360;10.958;2023-02-28T15:42:11;96727.44;;;3.43;59.15
56668;BME280;42542;48.360;10.958;2023-02-28T15:48:52;96731.03;;;3.42;59.08
56668;BME280;42542;48.360;10.958;2023-02-28T15:51:58;96731.97;;;3.41;59.47
56668;BME280;42542;48.360;10.958;2023-02-28T15:55:18;96714.34;;;3.29;59.60
56668;BME280;42542;48.360;10.958;2023-02-28T15:58:21;96723.13;;;3.30;59.73
56668;BME280;42542;48.360;10.958;2023-02-28T16:01:26;96727.84;;;3.25;59.62
56668;BME280;42542;48.360;10.958;2023-02-28T16:04:30;96728.50;;;3.16;59.70
56668;BME280;42542;48.360;10.958;2023-02-28T16:07:34;96730.19;;;3.17;59.70
56668;BME280;42542;48.360;10.958;2023-02-28T16:10:38;96719.91;;;3.12;59.97
56668;BME280;42542;48.360;10.958;2023-02-28T16:13:39;96731.75;;;3.06;59.78
56668;BME280;42542;48.360;10.958;2023-02-28T16:16:49;96722.47;;;3.01;60.08
56668;BME280;42542;48.360;10.958;2023-02-28T16:19:53;96720.44;;;2.92;60.11
56668;BME280;42542;48.360;10.958;2023-02-28T16:22:55;96726.88;;;2.88;60.57
56668;BME280;42542;48.360;10.958;2023-02-28T16:25:57;96725.69;;;2.79;60.39
56668;BME280;42542;48.360;10.958;2023-02-28T16:29:01;96730.13;;;2.79;61.07
56668;BME280;42542;48.360;10.958;2023-02-28T16:32:07;96733.03;;;2.74;61.14
56668;BME280;42542;48.360;10.958;2023-02-28T16:35:11;96734.22;;;2.70;61.55
56668;BME280;42542;48.360;10.958;2023-02-28T16:38:14;96733.00;;;2.61;61.19
56668;BME280;42542;48.360;10.958;2023-02-28T16:41:21;96740.94;;;2.61;61.02
56668;BME280;42542;48.360;10.958;2023-02-28T16:44:28;96742.19;;;2.56;61.75
56668;BME280;42542;48.360;10.958;2023-02-28T16:47:31;96738.06;;;2.52;61.85
56668;BME280;42542;48.360;10.958;2023-02-28T16:50:34;96745.31;;;2.48;62.02
56668;BME280;42542;48.360;10.958;2023-02-28T16:53:38;96748.06;;;2.47;62.14
56668;BME280;42542;48.360;10.958;2023-02-28T16:56:44;96752.69;;;2.43;62.46
56668;BME280;42542;48.360;10.958;2023-02-28T16:59:46;96746.84;;;2.38;62.70
56668;BME280;42542;48.360;10.958;2023-02-28T17:02:48;96753.19;;;2.35;62.76
56668;BME280;42542;48.360;10.958;2023-02-28T17:05:51;96757.06;;;2.30;63.02
56668;BME280;42542;48.360;10.958;2023-02-28T17:08:53;96761.69;;;2.26;63.10
56668;BME280;42542;48.360;10.958;2023-02-28T17:11:56;96770.09;;;2.19;64.09
56668;BME280;42542;48.360;10.958;2023-02-28T17:14:59;96767.66;;;2.16;64.43
56668;BME280;42542;48.360;10.958;2023-02-28T17:18:01;96775.94;;;2.10;65.12
56668;BME280;42542;48.360;10.958;2023-02-28T17:21:12;96776.31;;;2.04;65.05
56668;BME280;42542;48.360;10.958;2023-02-28T17:24:15;96784.84;;;1.94;65.36
56668;BME280;42542;48.360;10.958;2023-02-28T17:27:31;96785.94;;;1.90;65.44
56668;BME280;42542;48.360;10.958;2023-02-28T17:30:34;96781.91;;;1.85;66.28
56668;BME280;42542;48.360;10.958;2023-02-28T17:33:39;96785.00;;;1.77;66.90
56668;BME280;42542;48.360;10.958;2023-02-28T17:36:42;96776.81;;;1.68;66.61
56668;BME280;42542;48.360;10.958;2023-02-28T17:39:46;96783.31;;;1.62;66.89
56668;BME280;42542;48.360;10.958;2023-02-28T17:42:47;96771.47;;;1.55;67.35
56668;BME280;42542;48.360;10.958;2023-02-28T17:45:50;96777.97;;;1.49;67.64
56668;BME280;42542;48.360;10.958;2023-02-28T17:48:53;96783.59;;;1.43;67.91
56668;BME280;42542;48.360;10.958;2023-02-28T17:51:55;96783.13;;;1.37;68.18
56668;BME280;42542;48.360;10.958;2023-02-28T17:54:57;96779.91;;;1.32;68.95
56668;BME280;42542;48.360;10.958;2023-02-28T17:58:00;96789.03;;;1.26;69.05
56668;BME280;42542;48.360;10.958;2023-02-28T18:01:02;96792.88;;;1.21;69.07
56668;BME280;42542;48.360;10.958;2023-02-28T18:04:04;96797.53;;;1.15;69.02